sensor_id;sensor_type;location;lat;lon;timestamp;P1;durP1;ratioP1;P2;durP2;ratioP2
59512;SDS011;45330;51.634;5.562;2023-03-05T00:01:16;18.30;;;3.50;;
59512;SDS011;45330;51.634;5.562;2023-03-05T00:03:46;14.80;;;3.33;;
59512;SDS011;45330;51.634;5.562;2023-03-05T00:06:12;18.58;;;3.53;;
59512;SDS011;45330;51.634;5.562;2023-03-05T00:08:38;15.82;;;3.63;;
59512;SDS011;45330;51.634;5.562;2023-03-05T00:11:05;18.60;;;3.15;;
59512;SDS011;45330;51.634;5.562;2023-03-05T00:13:32;11.77;;;3.85;;
59512;SDS011;45330;51.634;5.562;2023-03-05T00:15:58;19.33;;;3.88;;
59512;SDS011;45330;51.634;5.562;2023-03-05T00:18:23;18.67;;;3.30;;
59512;SDS011;45330;51.634;5.562;2023-03-05T00:20:49;15.82;;;3.40;;
59512;SDS011;45330;51.634;5.562;2023-03-05T00:23:15;17.48;;;3.42;;
59512;SDS011;45330;51.634;5.562;2023-03-05T00:25:40;19.52;;;3.40;;
59512;SDS011;45330;51.634;5.562;2023-03-05T00:28:06;13.93;;;3.10;;
59512;SDS011;45330;51.634;5.562;2023-03-05T00:30:32;11.57;;;3.08;;
59512;SDS011;45330;51.634;5.562;2023-03-05T00:32:58;16.70;;;3.10;;
59512;SDS011;45330;51.634;5.562;2023-03-05T00:35:24;15.05;;;3.33;;
59512;SDS011;45330;51.634;5.562;2023-03-05T00:37:49;12.50;;;3.15;;
59512;SDS011;45330;51.634;5.562;2023-03-05T00:40:15;15.50;;;3.70;;
59512;SDS011;45330;51.634;5.562;2023-03-05T00:42:40;18.10;;;3.97;;
59512;SDS011;45330;51.634;5.562;2023-03-05T00:45:06;18.00;;;3.25;;
59512;SDS011;45330;51.634;5.562;2023-03-05T00:47:33;16.23;;;3.40;;
59512;SDS011;45330;51.634;5.562;2023-03-05T00:49:59;13.70;;;3.15;;
59512;SDS011;45330;51.634;5.562;2023-03-05T00:52:25;15.18;;;3.20;;
59512;SDS011;45330;51.634;5.562;2023-03-05T00:54:50;18.55;;;3.97;;
59512;SDS011;45330;51.634;5.562;2023-03-05T00:57:15;12.52;;;3.60;;
59512;SDS011;45330;51.634;5.562;2023-03-05T00:59:41;14.40;;;3.45;;
59512;SDS011;45330;51.634;5.562;2023-03-05T01:02:06;15.82;;;3.33;;
59512;SDS011;45330;51.634;5.562;2023-03-05T01:04:32;14.70;;;3.30;;
59512;SDS011;45330;51.634;5.562;2023-03-05T01:06:58;15.93;;;3.78;;
59512;SDS011;45330;51.634;5.562;2023-03-05T01:09:23;15.18;;;3.70;;
59512;SDS011;45330;51.634;5.562;2023-03-05T01:11:49;18.20;;;3.92;;
59512;SDS011;45330;51.634;5.562;2023-03-05T01:14:18;18.05;;;4.22;;
59512;SDS011;45330;51.634;5.562;2023-03-05T01:16:44;16.20;;;3.60;;
59512;SDS011;45330;51.634;5.562;2023-03-05T01:19:10;17.35;;;4.28;;
59512;SDS011;45330;51.634;5.562;2023-03-05T01:21:36;14.18;;;3.70;;
59512;SDS011;45330;51.634;5.562;2023-03-05T01:24:02;15.43;;;3.72;;
59512;SDS011;45330;51.634;5.562;2023-03-05T01:26:28;15.10;;;3.33;;
59512;SDS011;45330;51.634;5.562;2023-03-05T01:28:54;17.55;;;3.40;;
59512;SDS011;45330;51.634;5.562;2023-03-05T01:31:19;14.13;;;3.50;;
59512;SDS011;45330;51.634;5.562;2023-03-05T01:33:45;17.83;;;3.47;;
59512;SDS011;45330;51.634;5.562;2023-03-05T01:36:11;16.35;;;3.25;;
59512;SDS011;45330;51.634;5.562;2023-03-05T01:38:41;11.77;;;2.95;;
59512;SDS011;45330;51.634;5.562;2023-03-05T01:41:07;19.00;;;4.10;;
59512;SDS011;45330;51.634;5.562;2023-03-05T01:43:33;14.32;;;3.05;;
59512;SDS011;45330;51.634;5.562;2023-03-05T01:51:23;16.27;;;3.35;;
59512;SDS011;45330;51.634;5.562;2023-03-05T01:53:53;12.35;;;3.30;;
59512;SDS011;45330;51.634;5.562;2023-03-05T01:56:21;17.83;;;3.58;;
59512;SDS011;45330;51.634;5.562;2023-03-05T01:58:46;15.10;;;3.38;;
59512;SDS011;45330;51.634;5.562;2023-03-05T02:01:12;17.63;;;4.03;;
59512;SDS011;45330;51.634;5.562;2023-03-05T02:03:38;22.48;;;4.30;;
59512;SDS011;45330;51.634;5.562;2023-03-05T02:06:05;14.10;;;3.50;;
59512;SDS011;45330;51.634;5.562;2023-03-05T02:08:30;16.33;;;3.80;;
59512;SDS011;45330;51.634;5.562;2023-03-05T02:10:56;15.63;;;3.47;;
59512;SDS011;45330;51.634;5.562;2023-03-05T02:13:22;19.02;;;3.70;;
59512;SDS011;45330;51.634;5.562;2023-03-05T02:15:50;18.15;;;3.92;;
59512;SDS011;45330;51.634;5.562;2023-03-05T02:18:18;21.02;;;3.80;;
59512;SDS011;45330;51.634;5.562;2023-03-05T02:20:45;16.40;;;3.95;;
59512;SDS011;45330;51.634;5.562;2023-03-05T02:23:15;18.90;;;3.60;;
59512;SDS011;45330;51.634;5.562;2023-03-05T02:25:41;16.67;;;3.50;;
59512;SDS011;45330;51.634;5.562;2023-03-05T02:30:54;16.27;;;3.60;;
59512;SDS011;45330;51.634;5.562;2023-03-05T02:33:19;17.27;;;3.75;;
59512;SDS011;45330;51.634;5.562;2023-03-05T02:35:45;17.08;;;3.95;;
59512;SDS011;45330;51.634;5.562;2023-03-05T02:38:15;15.20;;;3.63;;
59512;SDS011;45330;51.634;5.562;2023-03-05T02:40:43;13.05;;;3.92;;
59512;SDS011;45330;51.634;5.562;2023-03-05T02:43:09;18.75;;;4.45;;
59512;SDS011;45330;51.634;5.562;2023-03-05T02:45:35;22.80;;;4.28;;
59512;SDS011;45330;51.634;5.562;2023-03-05T02:48:01;19.33;;;3.92;;
59512;SDS011;45330;51.634;5.562;2023-03-05T02:50:26;17.50;;;3.83;;
59512;SDS011;45330;51.634;5.562;2023-03-05T02:52:53;16.88;;;3.50;;
59512;SDS011;45330;51.634;5.562;2023-03-05T02:55:18;14.98;;;3.78;;
59512;SDS011;45330;51.634;5.562;2023-03-05T02:57:44;15.68;;;3.25;;
59512;SDS011;45330;51.634;5.562;2023-03-05T03:00:10;14.27;;;3.33;;
59512;SDS011;45330;51.634;5.562;2023-03-05T03:02:35;15.25;;;3.20;;
59512;SDS011;45330;51.634;5.562;2023-03-05T03:05:01;16.98;;;3.20;;
59512;SDS011;45330;51.634;5.562;2023-03-05T03:07:26;17.58;;;3.60;;
59512;SDS011;45330;51.634;5.562;2023-03-05T03:09:52;13.90;;;3.25;;
59512;SDS011;45330;51.634;5.562;2023-03-05T03:12:17;15.70;;;3.28;;
59512;SDS011;45330;51.634;5.562;2023-03-05T03:14:43;12.77;;;3.60;;
59512;SDS011;45330;51.634;5.562;2023-03-05T03:17:10;13.65;;;3.83;;
59512;SDS011;45330;51.634;5.562;2023-03-05T03:19:37;13.48;;;3.22;;
59512;SDS011;45330;51.634;5.562;2023-03-05T03:22:03;15.75;;;3.45;;
59512;SDS011;45330;51.634;5.562;2023-03-05T03:24:30;18.73;;;3.88;;
59512;SDS011;45330;51.634;5.562;2023-03-05T03:26:56;12.38;;;3.80;;
59512;SDS011;45330;51.634;5.562;2023-03-05T03:29:21;13.68;;;3.20;;
59512;SDS011;45330;51.634;5.562;2023-03-05T03:31:47;12.93;;;2.92;;
59512;SDS011;45330;51.634;5.562;2023-03-05T03:34:13;14.50;;;3.22;;
59512;SDS011;45330;51.634;5.562;2023-03-05T03:36:40;15.80;;;3.58;;
59512;SDS011;45330;51.634;5.562;2023-03-05T03:39:06;14.98;;;2.95;;
59512;SDS011;45330;51.634;5.562;2023-03-05T03:41:34;13.65;;;3.17;;
59512;SDS011;45330;51.634;5.562;2023-03-05T03:44:00;15.50;;;2.90;;
59512;SDS011;45330;51.634;5.562;2023-03-05T03:46:27;14.10;;;2.90;;
59512;SDS011;45330;51.634;5.562;2023-03-05T03:48:52;13.23;;;3.30;;
59512;SDS011;45330;51.634;5.562;2023-03-05T03:51:18;13.10;;;2.90;;
59512;SDS011;45330;51.634;5.562;2023-03-05T03:53:43;14.93;;;3.00;;
59512;SDS011;45330;51.634;5.562;2023-03-05T03:56:09;14.32;;;2.95;;
59512;SDS011;45330;51.634;5.562;2023-03-05T03:58:34;13.93;;;3.17;;
59512;SDS011;45330;51.634;5.562;2023-03-05T04:00:59;14.95;;;3.30;;
59512;SDS011;45330;51.634;5.562;2023-03-05T04:03:25;13.38;;;3.22;;
59512;SDS011;45330;51.634;5.562;2023-03-05T04:05:50;21.77;;;3.92;;
59512;SDS011;45330;51.634;5.562;2023-03-05T04:08:15;14.07;;;3.15;;
59512;SDS011;45330;51.634;5.562;2023-03-05T04:10:41;18.55;;;3.38;;
59512;SDS011;45330;51.634;5.562;2023-03-05T04:13:06;16.33;;;3.05;;
59512;SDS011;45330;51.634;5.562;2023-03-05T04:15:32;12.85;;;3.13;;
59512;SDS011;45330;51.634;5.562;2023-03-05T04:17:58;13.57;;;3.50;;
59512;SDS011;45330;51.634;5.562;2023-03-05T04:20:23;16.02;;;3.80;;
59512;SDS011;45330;51.634;5.562;2023-03-05T04:22:49;13.93;;;3.10;;
59512;SDS011;45330;51.634;5.562;2023-03-05T04:25:14;19.02;;;3.70;;
59512;SDS011;45330;51.634;5.562;2023-03-05T04:27:40;11.90;;;3.03;;
59512;SDS011;45330;51.634;5.562;2023-03-05T04:30:06;17.67;;;3.20;;
59512;SDS011;45330;51.634;5.562;2023-03-05T04:32:32;13.40;;;3.20;;
59512;SDS011;45330;51.634;5.562;2023-03-05T04:34:58;16.48;;;3.60;;
59512;SDS011;45330;51.634;5.562;2023-03-05T04:37:23;14.85;;;3.17;;
59512;SDS011;45330;51.634;5.562;2023-03-05T04:39:50;15.13;;;3.55;;
59512;SDS011;45330;51.634;5.562;2023-03-05T04:42:16;15.43;;;3.47;;
59512;SDS011;45330;51.634;5.562;2023-03-05T04:44:43;16.30;;;3.47;;
59512;SDS011;45330;51.634;5.562;2023-03-05T04:47:08;12.75;;;3.35;;
59512;SDS011;45330;51.634;5.562;2023-03-05T04:49:34;18.25;;;3.67;;
59512;SDS011;45330;51.634;5.562;2023-03-05T04:51:59;17.08;;;3.45;;
59512;SDS011;45330;51.634;5.562;2023-03-05T04:54:24;14.77;;;3.22;;
59512;SDS011;45330;51.634;5.562;2023-03-05T04:56:50;14.57;;;3.33;;
59512;SDS011;45330;51.634;5.562;2023-03-05T04:59:15;16.25;;;3.42;;
59512;SDS011;45330;51.634;5.562;2023-03-05T05:01:40;12.85;;;3.50;;
59512;SDS011;45330;51.634;5.562;2023-03-05T05:04:07;18.52;;;3.30;;
59512;SDS011;45330;51.634;5.562;2023-03-05T05:06:32;14.57;;;3.63;;
59512;SDS011;45330;51.634;5.562;2023-03-05T05:08:58;17.23;;;3.60;;
59512;SDS011;45330;51.634;5.562;2023-03-05T05:11:23;11.07;;;3.10;;
59512;SDS011;45330;51.634;5.562;2023-03-05T05:13:48;18.15;;;3.42;;
59512;SDS011;45330;51.634;5.562;2023-03-05T05:16:14;13.45;;;3.60;;
59512;SDS011;45330;51.634;5.562;2023-03-05T05:18:40;13.98;;;3.75;;
59512;SDS011;45330;51.634;5.562;2023-03-05T05:21:06;16.60;;;3.65;;
59512;SDS011;45330;51.634;5.562;2023-03-05T05:23:33;15.25;;;3.65;;
59512;SDS011;45330;51.634;5.562;2023-03-05T05:25:59;14.32;;;3.55;;
59512;SDS011;45330;51.634;5.562;2023-03-05T05:28:26;21.80;;;4.28;;
59512;SDS011;45330;51.634;5.562;2023-03-05T05:30:52;16.83;;;4.00;;
59512;SDS011;45330;51.634;5.562;2023-03-05T05:33:17;19.10;;;4.03;;
59512;SDS011;45330;51.634;5.562;2023-03-05T05:35:43;17.02;;;4.40;;
59512;SDS011;45330;51.634;5.562;2023-03-05T05:38:09;17.30;;;4.82;;
59512;SDS011;45330;51.634;5.562;2023-03-05T05:40:34;17.42;;;4.65;;
59512;SDS011;45330;51.634;5.562;2023-03-05T05:42:59;18.92;;;5.13;;
59512;SDS011;45330;51.634;5.562;2023-03-05T05:45:25;21.00;;;5.03;;
59512;SDS011;45330;51.634;5.562;2023-03-05T05:47:50;17.75;;;5.35;;
59512;SDS011;45330;51.634;5.562;2023-03-05T05:50:17;16.35;;;5.22;;
59512;SDS011;45330;51.634;5.562;2023-03-05T05:52:43;15.90;;;5.47;;
59512;SDS011;45330;51.634;5.562;2023-03-05T05:55:09;20.52;;;6.55;;
59512;SDS011;45330;51.634;5.562;2023-03-05T05:57:35;18.25;;;6.00;;
59512;SDS011;45330;51.634;5.562;2023-03-05T06:00:00;17.70;;;5.47;;
59512;SDS011;45330;51.634;5.562;2023-03-05T06:02:27;16.13;;;5.90;;
59512;SDS011;45330;51.634;5.562;2023-03-05T06:04:52;19.25;;;6.05;;
59512;SDS011;45330;51.634;5.562;2023-03-05T06:07:18;19.25;;;6.47;;
59512;SDS011;45330;51.634;5.562;2023-03-05T06:09:43;17.90;;;6.55;;
59512;SDS011;45330;51.634;5.562;2023-03-05T06:12:09;20.30;;;6.70;;
59512;SDS011;45330;51.634;5.562;2023-03-05T06:14:35;22.05;;;7.65;;
59512;SDS011;45330;51.634;5.562;2023-03-05T06:17:00;21.67;;;7.28;;
59512;SDS011;45330;51.634;5.562;2023-03-05T06:19:26;23.95;;;7.75;;
59512;SDS011;45330;51.634;5.562;2023-03-05T06:21:51;18.60;;;7.38;;
59512;SDS011;45330;51.634;5.562;2023-03-05T06:24:16;21.23;;;8.13;;
59512;SDS011;45330;51.634;5.562;2023-03-05T06:26:43;22.10;;;7.50;;
59512;SDS011;45330;51.634;5.562;2023-03-05T06:29:10;21.67;;;7.55;;
59512;SDS011;45330;51.634;5.562;2023-03-05T06:31:36;20.38;;;7.97;;
59512;SDS011;45330;51.634;5.562;2023-03-05T06:34:02;23.67;;;7.78;;
59512;SDS011;45330;51.634;5.562;2023-03-05T06:36:28;24.38;;;8.38;;
59512;SDS011;45330;51.634;5.562;2023-03-05T06:38:54;22.45;;;8.52;;
59512;SDS011;45330;51.634;5.562;2023-03-05T06:41:22;22.65;;;8.57;;
59512;SDS011;45330;51.634;5.562;2023-03-05T06:43:53;22.38;;;8.38;;
59512;SDS011;45330;51.634;5.562;2023-03-05T06:46:26;23.05;;;9.10;;
59512;SDS011;45330;51.634;5.562;2023-03-05T06:48:56;22.60;;;8.40;;
59512;SDS011;45330;51.634;5.562;2023-03-05T06:51:24;22.73;;;9.13;;
59512;SDS011;45330;51.634;5.562;2023-03-05T06:53:51;24.42;;;8.52;;
59512;SDS011;45330;51.634;5.562;2023-03-05T06:56:18;23.65;;;8.52;;
59512;SDS011;45330;51.634;5.562;2023-03-05T06:58:44;23.05;;;8.68;;
59512;SDS011;45330;51.634;5.562;2023-03-05T07:01:11;22.83;;;9.00;;
59512;SDS011;45330;51.634;5.562;2023-03-05T07:03:38;23.45;;;9.05;;
59512;SDS011;45330;51.634;5.562;2023-03-05T07:06:04;22.05;;;8.63;;
59512;SDS011;45330;51.634;5.562;2023-03-05T07:08:30;23.05;;;9.40;;
59512;SDS011;45330;51.634;5.562;2023-03-05T07:10:56;24.52;;;9.80;;
59512;SDS011;45330;51.634;5.562;2023-03-05T07:13:21;22.55;;;8.70;;
59512;SDS011;45330;51.634;5.562;2023-03-05T07:15:47;23.52;;;9.52;;
59512;SDS011;45330;51.634;5.562;2023-03-05T07:18:12;24.60;;;9.98;;
59512;SDS011;45330;51.634;5.562;2023-03-05T07:20:37;22.67;;;9.50;;
59512;SDS011;45330;51.634;5.562;2023-03-05T07:23:03;21.80;;;9.27;;
59512;SDS011;45330;51.634;5.562;2023-03-05T07:25:28;21.13;;;8.70;;
59512;SDS011;45330;51.634;5.562;2023-03-05T07:27:54;22.10;;;9.32;;
59512;SDS011;45330;51.634;5.562;2023-03-05T07:30:20;22.60;;;9.23;;
59512;SDS011;45330;51.634;5.562;2023-03-05T07:32:45;21.30;;;9.48;;
59512;SDS011;45330;51.634;5.562;2023-03-05T07:35:11;22.50;;;9.73;;
59512;SDS011;45330;51.634;5.562;2023-03-05T07:37:36;19.67;;;8.15;;
59512;SDS011;45330;51.634;5.562;2023-03-05T07:40:02;21.30;;;9.27;;
59512;SDS011;45330;51.634;5.562;2023-03-05T07:42:28;24.35;;;10.13;;
59512;SDS011;45330;51.634;5.562;2023-03-05T07:44:54;23.38;;;10.07;;
59512;SDS011;45330;51.634;5.562;2023-03-05T07:47:20;23.23;;;10.60;;
59512;SDS011;45330;51.634;5.562;2023-03-05T07:49:47;24.25;;;10.02;;
59512;SDS011;45330;51.634;5.562;2023-03-05T07:52:12;22.00;;;10.23;;
59512;SDS011;45330;51.634;5.562;2023-03-05T07:54:38;21.98;;;10.32;;
59512;SDS011;45330;51.634;5.562;2023-03-05T07:57:04;20.48;;;9.63;;
59512;SDS011;45330;51.634;5.562;2023-03-05T07:59:30;20.27;;;8.73;;
59512;SDS011;45330;51.634;5.562;2023-03-05T08:01:56;22.67;;;8.88;;
59512;SDS011;45330;51.634;5.562;2023-03-05T08:04:22;19.77;;;8.63;;
59512;SDS011;45330;51.634;5.562;2023-03-05T08:06:48;22.73;;;9.30;;
59512;SDS011;45330;51.634;5.562;2023-03-05T08:09:14;23.15;;;8.20;;
59512;SDS011;45330;51.634;5.562;2023-03-05T08:11:40;18.13;;;6.90;;
59512;SDS011;45330;51.634;5.562;2023-03-05T08:14:06;17.65;;;6.85;;
59512;SDS011;45330;51.634;5.562;2023-03-05T08:16:31;19.83;;;7.80;;
59512;SDS011;45330;51.634;5.562;2023-03-05T08:18:57;19.25;;;7.60;;
59512;SDS011;45330;51.634;5.562;2023-03-05T08:21:29;19.40;;;7.93;;
59512;SDS011;45330;51.634;5.562;2023-03-05T08:24:03;19.63;;;7.95;;
59512;SDS011;45330;51.634;5.562;2023-03-05T08:26:31;20.63;;;7.72;;
59512;SDS011;45330;51.634;5.562;2023-03-05T08:28:58;20.20;;;8.10;;
59512;SDS011;45330;51.634;5.562;2023-03-05T08:31:24;19.48;;;7.97;;
59512;SDS011;45330;51.634;5.562;2023-03-05T08:33:51;17.40;;;6.88;;
59512;SDS011;45330;51.634;5.562;2023-03-05T08:36:18;19.85;;;7.10;;
59512;SDS011;45330;51.634;5.562;2023-03-05T08:38:44;18.70;;;6.30;;
59512;SDS011;45330;51.634;5.562;2023-03-05T08:41:10;16.42;;;5.90;;
59512;SDS011;45330;51.634;5.562;2023-03-05T08:43:37;15.23;;;5.60;;
59512;SDS011;45330;51.634;5.562;2023-03-05T08:46:03;16.45;;;5.47;;
59512;SDS011;45330;51.634;5.562;2023-03-05T08:48:28;15.80;;;5.90;;
59512;SDS011;45330;51.634;5.562;2023-03-05T08:50:55;14.15;;;4.68;;
59512;SDS011;45330;51.634;5.562;2023-03-05T08:53:21;15.55;;;4.70;;
59512;SDS011;45330;51.634;5.562;2023-03-05T08:55:56;13.80;;;5.10;;
59512;SDS011;45330;51.634;5.562;2023-03-05T08:58:22;12.73;;;4.22;;
59512;SDS011;45330;51.634;5.562;2023-03-05T09:00:48;13.88;;;4.85;;
59512;SDS011;45330;51.634;5.562;2023-03-05T09:03:14;13.48;;;4.53;;
59512;SDS011;45330;51.634;5.562;2023-03-05T09:05:40;11.52;;;4.10;;
59512;SDS011;45330;51.634;5.562;2023-03-05T09:08:05;12.25;;;4.38;;
59512;SDS011;45330;51.634;5.562;2023-03-05T09:10:31;10.95;;;4.15;;
59512;SDS011;45330;51.634;5.562;2023-03-05T09:12:56;13.63;;;4.10;;
59512;SDS011;45330;51.634;5.562;2023-03-05T09:15:21;9.70;;;3.83;;
59512;SDS011;45330;51.634;5.562;2023-03-05T09:17:47;10.68;;;3.75;;
59512;SDS011;45330;51.634;5.562;2023-03-05T09:20:12;10.38;;;3.53;;
59512;SDS011;45330;51.634;5.562;2023-03-05T09:22:39;16.00;;;5.07;;
59512;SDS011;45330;51.634;5.562;2023-03-05T09:25:05;8.82;;;3.25;;
59512;SDS011;45330;51.634;5.562;2023-03-05T09:27:32;12.18;;;3.50;;
59512;SDS011;45330;51.634;5.562;2023-03-05T09:30:00;10.48;;;3.33;;
59512;SDS011;45330;51.634;5.562;2023-03-05T09:32:25;8.65;;;3.00;;
59512;SDS011;45330;51.634;5.562;2023-03-05T09:34:51;8.40;;;2.92;;
59512;SDS011;45330;51.634;5.562;2023-03-05T09:37:16;9.18;;;2.85;;
59512;SDS011;45330;51.634;5.562;2023-03-05T09:39:42;9.57;;;3.10;;
59512;SDS011;45330;51.634;5.562;2023-03-05T09:51:00;8.60;;;2.95;;
59512;SDS011;45330;51.634;5.562;2023-03-05T09:53:36;9.45;;;3.95;;
59512;SDS011;45330;51.634;5.562;2023-03-05T09:56:25;9.85;;;2.83;;
59512;SDS011;45330;51.634;5.562;2023-03-05T09:58:56;4.85;;;2.30;;
59512;SDS011;45330;51.634;5.562;2023-03-05T10:01:28;5.72;;;2.45;;
59512;SDS011;45330;51.634;5.562;2023-03-05T10:04:05;9.57;;;2.55;;
59512;SDS011;45330;51.634;5.562;2023-03-05T10:06:44;7.90;;;2.38;;
59512;SDS011;45330;51.634;5.562;2023-03-05T10:14:44;9.52;;;2.33;;
59512;SDS011;45330;51.634;5.562;2023-03-05T10:42:48;9.13;;;2.30;;
59512;SDS011;45330;51.634;5.562;2023-03-05T10:46:00;7.60;;;2.70;;
59512;SDS011;45330;51.634;5.562;2023-03-05T10:48:14;6.85;;;2.78;;
59512;SDS011;45330;51.634;5.562;2023-03-05T10:51:17;5.03;;;2.78;;
59512;SDS011;45330;51.634;5.562;2023-03-05T10:56:25;6.97;;;2.90;;
59512;SDS011;45330;51.634;5.562;2023-03-05T10:58:52;6.60;;;2.83;;
59512;SDS011;45330;51.634;5.562;2023-03-05T11:01:19;8.57;;;3.20;;
59512;SDS011;45330;51.634;5.562;2023-03-05T11:06:33;9.50;;;3.10;;
59512;SDS011;45330;51.634;5.562;2023-03-05T11:09:17;9.87;;;3.40;;
59512;SDS011;45330;51.634;5.562;2023-03-05T11:12:01;10.35;;;3.30;;
59512;SDS011;45330;51.634;5.562;2023-03-05T11:14:27;10.95;;;3.45;;
59512;SDS011;45330;51.634;5.562;2023-03-05T11:16:58;10.27;;;3.78;;
59512;SDS011;45330;51.634;5.562;2023-03-05T11:19:28;5.85;;;2.97;;
59512;SDS011;45330;51.634;5.562;2023-03-05T11:22:14;7.13;;;2.70;;
59512;SDS011;45330;51.634;5.562;2023-03-05T11:24:41;9.98;;;3.08;;
59512;SDS011;45330;51.634;5.562;2023-03-05T11:27:20;9.55;;;3.17;;
59512;SDS011;45330;51.634;5.562;2023-03-05T11:29:49;7.18;;;2.83;;
59512;SDS011;45330;51.634;5.562;2023-03-05T11:34:48;5.43;;;2.30;;
59512;SDS011;45330;51.634;5.562;2023-03-05T11:37:18;7.05;;;2.40;;
59512;SDS011;45330;51.634;5.562;2023-03-05T11:39:47;4.72;;;2.10;;
59512;SDS011;45330;51.634;5.562;2023-03-05T11:42:22;6.30;;;2.30;;
59512;SDS011;45330;51.634;5.562;2023-03-05T11:44:50;4.45;;;2.00;;
59512;SDS011;45330;51.634;5.562;2023-03-05T11:49:54;5.20;;;1.80;;
59512;SDS011;45330;51.634;5.562;2023-03-05T11:52:27;6.57;;;1.98;;
59512;SDS011;45330;51.634;5.562;2023-03-05T12:03:10;5.32;;;1.75;;
59512;SDS011;45330;51.634;5.562;2023-03-05T12:05:43;6.50;;;1.85;;
59512;SDS011;45330;51.634;5.562;2023-03-05T12:08:13;5.70;;;2.00;;
59512;SDS011;45330;51.634;5.562;2023-03-05T12:10:43;3.03;;;1.75;;
59512;SDS011;45330;51.634;5.562;2023-03-05T12:13:20;5.25;;;2.05;;
59512;SDS011;45330;51.634;5.562;2023-03-05T12:15:59;5.13;;;1.33;;
59512;SDS011;45330;51.634;5.562;2023-03-05T12:21:15;4.00;;;1.70;;
59512;SDS011;45330;51.634;5.562;2023-03-05T12:24:00;5.07;;;2.22;;
59512;SDS011;45330;51.634;5.562;2023-03-05T12:29:30;6.35;;;2.20;;
59512;SDS011;45330;51.634;5.562;2023-03-05T12:32:03;5.43;;;2.10;;
59512;SDS011;45330;51.634;5.562;2023-03-05T12:37:10;9.38;;;2.30;;
59512;SDS011;45330;51.634;5.562;2023-03-05T12:47:34;6.35;;;2.30;;
59512;SDS011;45330;51.634;5.562;2023-03-05T12:50:03;5.20;;;2.30;;
59512;SDS011;45330;51.634;5.562;2023-03-05T12:52:30;4.00;;;1.77;;
59512;SDS011;45330;51.634;5.562;2023-03-05T12:55:04;6.13;;;2.00;;
59512;SDS011;45330;51.634;5.562;2023-03-05T12:57:43;8.20;;;2.00;;
59512;SDS011;45330;51.634;5.562;2023-03-05T13:00:12;6.05;;;1.80;;
59512;SDS011;45330;51.634;5.562;2023-03-05T13:02:45;4.90;;;1.90;;
59512;SDS011;45330;51.634;5.562;2023-03-05T13:05:20;3.38;;;1.92;;
59512;SDS011;45330;51.634;5.562;2023-03-05T13:07:49;6.28;;;2.33;;
59512;SDS011;45330;51.634;5.562;2023-03-05T13:10:26;4.18;;;1.90;;
59512;SDS011;45330;51.634;5.562;2023-03-05T13:12:53;6.30;;;1.90;;
59512;SDS011;45330;51.634;5.562;2023-03-05T13:15:22;8.82;;;2.88;;
59512;SDS011;45330;51.634;5.562;2023-03-05T13:17:59;8.32;;;2.20;;
59512;SDS011;45330;51.634;5.562;2023-03-05T13:20:31;4.00;;;1.80;;
59512;SDS011;45330;51.634;5.562;2023-03-05T13:25:33;5.43;;;1.90;;
59512;SDS011;45330;51.634;5.562;2023-03-05T13:28:02;4.97;;;1.83;;
59512;SDS011;45330;51.634;5.562;2023-03-05T13:30:28;2.42;;;1.88;;
59512;SDS011;45330;51.634;5.562;2023-03-05T13:32:55;4.20;;;1.95;;
59512;SDS011;45330;51.634;5.562;2023-03-05T13:35:26;3.85;;;1.73;;
59512;SDS011;45330;51.634;5.562;2023-03-05T13:37:52;4.63;;;2.15;;
59512;SDS011;45330;51.634;5.562;2023-03-05T13:40:21;5.10;;;1.80;;
59512;SDS011;45330;51.634;5.562;2023-03-05T13:42:52;3.97;;;1.73;;
59512;SDS011;45330;51.634;5.562;2023-03-05T13:45:28;4.38;;;1.42;;
59512;SDS011;45330;51.634;5.562;2023-03-05T13:48:01;2.80;;;1.40;;
59512;SDS011;45330;51.634;5.562;2023-03-05T13:50:30;4.22;;;1.90;;
59512;SDS011;45330;51.634;5.562;2023-03-05T13:53:12;3.78;;;1.55;;
59512;SDS011;45330;51.634;5.562;2023-03-05T13:56:00;7.00;;;1.40;;
59512;SDS011;45330;51.634;5.562;2023-03-05T14:04:06;3.97;;;1.50;;
59512;SDS011;45330;51.634;5.562;2023-03-05T14:06:41;5.78;;;1.90;;
59512;SDS011;45330;51.634;5.562;2023-03-05T14:09:17;7.55;;;1.90;;
59512;SDS011;45330;51.634;5.562;2023-03-05T14:11:50;3.00;;;1.60;;
59512;SDS011;45330;51.634;5.562;2023-03-05T14:14:30;5.22;;;2.08;;
59512;SDS011;45330;51.634;5.562;2023-03-05T14:17:21;5.70;;;1.92;;
59512;SDS011;45330;51.634;5.562;2023-03-05T14:19:51;5.63;;;1.60;;
59512;SDS011;45330;51.634;5.562;2023-03-05T14:22:32;5.57;;;1.80;;
59512;SDS011;45330;51.634;5.562;2023-03-05T14:24:59;6.05;;;2.03;;
59512;SDS011;45330;51.634;5.562;2023-03-05T14:27:33;4.45;;;1.85;;
59512;SDS011;45330;51.634;5.562;2023-03-05T14:30:00;3.28;;;1.50;;
59512;SDS011;45330;51.634;5.562;2023-03-05T14:32:36;4.28;;;1.45;;
59512;SDS011;45330;51.634;5.562;2023-03-05T14:35:02;5.90;;;1.70;;
59512;SDS011;45330;51.634;5.562;2023-03-05T14:39:59;5.40;;;2.00;;
59512;SDS011;45330;51.634;5.562;2023-03-05T14:44:55;3.60;;;1.60;;
59512;SDS011;45330;51.634;5.562;2023-03-05T14:47:23;2.17;;;1.52;;
59512;SDS011;45330;51.634;5.562;2023-03-05T14:49:48;3.28;;;1.50;;
59512;SDS011;45330;51.634;5.562;2023-03-05T14:52:14;2.03;;;1.50;;
59512;SDS011;45330;51.634;5.562;2023-03-05T14:54:42;4.75;;;1.85;;
59512;SDS011;45330;51.634;5.562;2023-03-05T14:57:21;3.55;;;1.42;;
59512;SDS011;45330;51.634;5.562;2023-03-05T14:59:49;6.25;;;1.70;;
59512;SDS011;45330;51.634;5.562;2023-03-05T15:02:16;4.50;;;1.90;;
59512;SDS011;45330;51.634;5.562;2023-03-05T15:04:43;5.20;;;1.52;;
59512;SDS011;45330;51.634;5.562;2023-03-05T15:07:29;3.70;;;1.60;;
59512;SDS011;45330;51.634;5.562;2023-03-05T15:09:56;5.65;;;1.55;;
59512;SDS011;45330;51.634;5.562;2023-03-05T15:12:22;3.35;;;1.30;;
59512;SDS011;45330;51.634;5.562;2023-03-05T15:14:52;2.40;;;1.30;;
59512;SDS011;45330;51.634;5.562;2023-03-05T15:17:22;2.38;;;1.48;;
59512;SDS011;45330;51.634;5.562;2023-03-05T15:19:54;3.72;;;1.30;;
59512;SDS011;45330;51.634;5.562;2023-03-05T15:22:19;4.15;;;1.60;;
59512;SDS011;45330;51.634;5.562;2023-03-05T15:24:45;3.83;;;1.67;;
59512;SDS011;45330;51.634;5.562;2023-03-05T15:27:10;3.00;;;1.52;;
59512;SDS011;45330;51.634;5.562;2023-03-05T15:29:36;4.45;;;1.63;;
59512;SDS011;45330;51.634;5.562;2023-03-05T15:32:02;3.67;;;1.70;;
59512;SDS011;45330;51.634;5.562;2023-03-05T15:34:29;3.10;;;1.60;;
59512;SDS011;45330;51.634;5.562;2023-03-05T15:36:55;4.95;;;1.92;;
59512;SDS011;45330;51.634;5.562;2023-03-05T15:39:24;5.05;;;2.00;;
59512;SDS011;45330;51.634;5.562;2023-03-05T15:41:50;3.85;;;1.80;;
59512;SDS011;45330;51.634;5.562;2023-03-05T15:44:16;4.13;;;1.73;;
59512;SDS011;45330;51.634;5.562;2023-03-05T15:46:42;5.47;;;2.10;;
59512;SDS011;45330;51.634;5.562;2023-03-05T15:49:07;5.43;;;1.80;;
59512;SDS011;45330;51.634;5.562;2023-03-05T15:51:32;4.38;;;1.90;;
59512;SDS011;45330;51.634;5.562;2023-03-05T15:53:58;5.05;;;1.67;;
59512;SDS011;45330;51.634;5.562;2023-03-05T15:56:23;5.38;;;1.90;;
59512;SDS011;45330;51.634;5.562;2023-03-05T15:58:50;3.40;;;1.70;;
59512;SDS011;45330;51.634;5.562;2023-03-05T16:01:16;7.55;;;2.20;;
59512;SDS011;45330;51.634;5.562;2023-03-05T16:03:43;2.75;;;1.60;;
59512;SDS011;45330;51.634;5.562;2023-03-05T16:06:09;3.50;;;1.83;;
59512;SDS011;45330;51.634;5.562;2023-03-05T16:08:36;3.47;;;1.75;;
59512;SDS011;45330;51.634;5.562;2023-03-05T16:11:03;4.25;;;1.80;;
59512;SDS011;45330;51.634;5.562;2023-03-05T16:13:29;5.88;;;1.80;;
59512;SDS011;45330;51.634;5.562;2023-03-05T16:15:56;4.20;;;1.85;;
59512;SDS011;45330;51.634;5.562;2023-03-05T16:18:22;4.47;;;1.48;;